sensor_id;sensor_type;location;lat;lon;timestamp;pressure;altitude;pressure_sealevel;temperature;humidity
23016;BME280;11674;52.428;13.584;2022-08-07T00:00:44;102309.91;;;17.45;43.73
23016;BME280;11674;52.428;13.584;2022-08-07T00:03:16;102306.53;;;17.43;44.03
23016;BME280;11674;52.428;13.584;2022-08-07T00:05:49;102311.34;;;17.42;43.91
23016;BME280;11674;52.428;13.584;2022-08-07T00:08:20;102301.25;;;17.41;43.73
23016;BME280;11674;52.428;13.584;2022-08-07T00:10:52;102310.25;;;17.38;44.23
23016;BME280;11674;52.428;13.584;2022-08-07T00:13:24;102310.00;;;17.35;44.15
23016;BME280;11674;52.428;13.584;2022-08-07T00:15:56;102315.38;;;17.31;44.11
23016;BME280;11674;52.428;13.584;2022-08-07T00:18:28;102309.50;;;17.28;44.25
23016;BME280;11674;52.428;13.584;2022-08-07T00:21:05;102308.66;;;17.27;44.48
23016;BME280;11674;52.428;13.584;2022-08-07T00:23:38;102311.75;;;17.26;44.30
23016;BME280;11674;52.428;13.584;2022-08-07T00:26:11;102314.03;;;17.24;44.29
23016;BME280;11674;52.428;13.584;2022-08-07T00:28:43;102317.97;;;17.23;44.60
23016;BME280;11674;52.428;13.584;2022-08-07T00:31:15;102308.47;;;17.19;44.31
23016;BME280;11674;52.428;13.584;2022-08-07T00:33:47;102313.53;;;17.17;44.67
23016;BME280;11674;52.428;13.584;2022-08-07T00:36:19;102315.81;;;17.15;44.77
23016;BME280;11674;52.428;13.584;2022-08-07T00:38:51;102308.53;;;17.14;44.79
23016;BME280;11674;52.428;13.584;2022-08-07T00:41:30;102303.44;;;17.16;44.62
23016;BME280;11674;52.428;13.584;2022-08-07T00:44:02;102300.13;;;17.14;44.68
23016;BME280;11674;52.428;13.584;2022-08-07T00:46:34;102312.47;;;17.13;44.85
23016;BME280;11674;52.428;13.584;2022-08-07T00:49:06;102305.19;;;17.12;45.19
23016;BME280;11674;52.428;13.584;2022-08-07T00:51:38;102299.94;;;17.05;44.92
23016;BME280;11674;52.428;13.584;2022-08-07T00:54:11;102306.16;;;16.97;45.39
23016;BME280;11674;52.428;13.584;2022-08-07T00:56:42;102302.03;;;16.90;45.45
23016;BME280;11674;52.428;13.584;2022-08-07T00:59:14;102306.59;;;16.86;45.43
23016;BME280;11674;52.428;13.584;2022-08-07T01:01:46;102304.88;;;16.85;45.43
23016;BME280;11674;52.428;13.584;2022-08-07T01:04:18;102308.00;;;16.83;45.79
23016;BME280;11674;52.428;13.584;2022-08-07T01:06:50;102314.44;;;16.84;45.46
23016;BME280;11674;52.428;13.584;2022-08-07T01:09:22;102318.38;;;16.83;45.87
23016;BME280;11674;52.428;13.584;2022-08-07T01:11:55;102308.88;;;16.79;45.89
23016;BME280;11674;52.428;13.584;2022-08-07T01:14:21;102310.00;;;16.78;46.04
23016;BME280;11674;52.428;13.584;2022-08-07T01:16:54;102309.47;;;16.76;46.11
23016;BME280;11674;52.428;13.584;2022-08-07T01:19:28;102317.88;;;16.76;46.04
23016;BME280;11674;52.428;13.584;2022-08-07T01:22:01;102308.91;;;16.74;46.14
23016;BME280;11674;52.428;13.584;2022-08-07T01:24:38;102314.28;;;16.70;46.19
23016;BME280;11674;52.428;13.584;2022-08-07T01:27:09;102309.88;;;16.59;46.08
23016;BME280;11674;52.428;13.584;2022-08-07T01:29:41;102305.47;;;16.48;46.56
23016;BME280;11674;52.428;13.584;2022-08-07T01:32:13;102304.72;;;16.43;46.25
23016;BME280;11674;52.428;13.584;2022-08-07T01:34:46;102301.06;;;16.37;46.37
23016;BME280;11674;52.428;13.584;2022-08-07T01:37:18;102301.34;;;16.36;46.73
23016;BME280;11674;52.428;13.584;2022-08-07T01:39:52;102305.03;;;16.31;46.77
23016;BME280;11674;52.428;13.584;2022-08-07T01:42:28;102313.19;;;16.28;46.98
23016;BME280;11674;52.428;13.584;2022-08-07T01:45:02;102298.59;;;16.26;46.56
23016;BME280;11674;52.428;13.584;2022-08-07T01:47:35;102310.66;;;16.26;46.62
23016;BME280;11674;52.428;13.584;2022-08-07T01:50:08;102307.59;;;16.23;47.07
23016;BME280;11674;52.428;13.584;2022-08-07T01:52:41;102304.59;;;16.14;47.08
23016;BME280;11674;52.428;13.584;2022-08-07T01:55:09;102303.75;;;16.09;47.22
23016;BME280;11674;52.428;13.584;2022-08-07T01:57:44;102303.25;;;16.02;47.61
23016;BME280;11674;52.428;13.584;2022-08-07T02:00:16;102301.63;;;15.96;47.34
23016;BME280;11674;52.428;13.584;2022-08-07T02:02:52;102302.19;;;15.93;47.74
23016;BME280;11674;52.428;13.584;2022-08-07T02:05:33;102302.47;;;15.91;47.66
23016;BME280;11674;52.428;13.584;2022-08-07T02:08:15;102303.84;;;15.94;48.05
23016;BME280;11674;52.428;13.584;2022-08-07T02:10:49;102306.66;;;15.94;47.88
23016;BME280;11674;52.428;13.584;2022-08-07T02:13:26;102305.56;;;15.95;47.83
23016;BME280;11674;52.428;13.584;2022-08-07T02:16:09;102305.56;;;15.95;48.01
23016;BME280;11674;52.428;13.584;2022-08-07T02:18:43;102303.56;;;15.95;47.98
23016;BME280;11674;52.428;13.584;2022-08-07T02:21:15;102296.59;;;15.93;47.85
23016;BME280;11674;52.428;13.584;2022-08-07T02:23:56;102298.84;;;15.91;48.38
23016;BME280;11674;52.428;13.584;2022-08-07T02:26:31;102310.03;;;15.91;48.29
23016;BME280;11674;52.428;13.584;2022-08-07T02:29:06;102317.59;;;15.90;48.13
23016;BME280;11674;52.428;13.584;2022-08-07T02:31:41;102310.88;;;15.91;48.16
23016;BME280;11674;52.428;13.584;2022-08-07T02:34:13;102308.38;;;15.90;48.28
23016;BME280;11674;52.428;13.584;2022-08-07T02:36:46;102314.53;;;15.87;48.71
23016;BME280;11674;52.428;13.584;2022-08-07T02:39:21;102306.72;;;15.84;48.57
23016;BME280;11674;52.428;13.584;2022-08-07T02:41:54;102308.16;;;15.81;48.66
23016;BME280;11674;52.428;13.584;2022-08-07T02:44:28;102313.44;;;15.83;48.54
23016;BME280;11674;52.428;13.584;2022-08-07T02:46:56;102303.63;;;15.80;48.87
23016;BME280;11674;52.428;13.584;2022-08-07T02:49:31;102297.78;;;15.77;48.81
23016;BME280;11674;52.428;13.584;2022-08-07T02:51:58;102303.97;;;15.74;48.92
23016;BME280;11674;52.428;13.584;2022-08-07T02:54:40;102307.06;;;15.72;49.05
23016;BME280;11674;52.428;13.584;2022-08-07T02:57:14;102301.47;;;15.67;48.90
23016;BME280;11674;52.428;13.584;2022-08-07T02:59:47;102302.34;;;15.63;49.30
23016;BME280;11674;52.428;13.584;2022-08-07T03:02:20;102303.75;;;15.60;49.20
23016;BME280;11674;52.428;13.584;2022-08-07T03:04:52;102303.78;;;15.55;49.18
23016;BME280;11674;52.428;13.584;2022-08-07T03:07:25;102299.88;;;15.51;49.35
23016;BME280;11674;52.428;13.584;2022-08-07T03:09:58;102296.25;;;15.46;49.39
23016;BME280;11674;52.428;13.584;2022-08-07T03:12:31;102311.09;;;15.41;49.48
23016;BME280;11674;52.428;13.584;2022-08-07T03:15:09;102308.03;;;15.38;49.38
23016;BME280;11674;52.428;13.584;2022-08-07T03:17:42;102312.22;;;15.35;49.82
23016;BME280;11674;52.428;13.584;2022-08-07T03:20:15;102311.94;;;15.32;49.96
23016;BME280;11674;52.428;13.584;2022-08-07T03:22:49;102313.34;;;15.29;50.01
23016;BME280;11674;52.428;13.584;2022-08-07T03:25:24;102306.63;;;15.25;49.86
23016;BME280;11674;52.428;13.584;2022-08-07T03:27:58;102309.97;;;15.22;50.01
23016;BME280;11674;52.428;13.584;2022-08-07T03:30:31;102316.16;;;15.19;50.18
23016;BME280;11674;52.428;13.584;2022-08-07T03:33:04;102309.44;;;15.15;50.04
23016;BME280;11674;52.428;13.584;2022-08-07T03:35:39;102310.31;;;15.11;50.19
23016;BME280;11674;52.428;13.584;2022-08-07T03:38:12;102315.34;;;15.04;50.50
23016;BME280;11674;52.428;13.584;2022-08-07T03:40:44;102317.03;;;15.00;50.26
23016;BME280;11674;52.428;13.584;2022-08-07T03:43:16;102314.53;;;14.98;50.31
23016;BME280;11674;52.428;13.584;2022-08-07T03:45:50;102318.44;;;14.97;50.52
23016;BME280;11674;52.428;13.584;2022-08-07T03:48:24;102314.78;;;14.97;50.83
23016;BME280;11674;52.428;13.584;2022-08-07T03:50:57;102313.97;;;14.96;50.96
23016;BME280;11674;52.428;13.584;2022-08-07T03:53:36;102326.25;;;14.95;50.70
23016;BME280;11674;52.428;13.584;2022-08-07T03:56:09;102328.50;;;14.93;50.83
23016;BME280;11674;52.428;13.584;2022-08-07T03:58:41;102325.44;;;14.90;50.85
23016;BME280;11674;52.428;13.584;2022-08-07T04:01:14;102324.88;;;14.88;50.96
23016;BME280;11674;52.428;13.584;2022-08-07T04:03:43;102323.50;;;14.85;51.10
23016;BME280;11674;52.428;13.584;2022-08-07T04:06:15;102330.47;;;14.83;51.32
23016;BME280;11674;52.428;13.584;2022-08-07T04:08:46;102330.75;;;14.81;51.44
23016;BME280;11674;52.428;13.584;2022-08-07T04:11:19;102328.22;;;14.80;51.17
23016;BME280;11674;52.428;13.584;2022-08-07T04:13:51;102327.09;;;14.81;51.42
23016;BME280;11674;52.428;13.584;2022-08-07T04:16:25;102328.22;;;14.80;51.62
23016;BME280;11674;52.428;13.584;2022-08-07T04:19:00;102320.97;;;14.79;51.74
23016;BME280;11674;52.428;13.584;2022-08-07T04:21:31;102324.59;;;14.79;51.41
23016;BME280;11674;52.428;13.584;2022-08-07T04:24:04;102330.16;;;14.84;51.93
23016;BME280;11674;52.428;13.584;2022-08-07T04:26:39;102329.63;;;15.02;51.95
23016;BME280;11674;52.428;13.584;2022-08-07T04:29:11;102320.31;;;15.32;51.99
23016;BME280;11674;52.428;13.584;2022-08-07T04:31:43;102324.41;;;15.64;51.34
23016;BME280;11674;52.428;13.584;2022-08-07T04:34:16;102324.56;;;15.93;51.29
23016;BME280;11674;52.428;13.584;2022-08-07T04:36:48;102326.44;;;16.07;51.01
23016;BME280;11674;52.428;13.584;2022-08-07T04:39:20;102331.19;;;16.12;50.96
23016;BME280;11674;52.428;13.584;2022-08-07T04:41:53;102331.19;;;16.12;50.83
23016;BME280;11674;52.428;13.584;2022-08-07T04:44:24;102333.16;;;16.11;50.66
23016;BME280;11674;52.428;13.584;2022-08-07T04:47:12;102334.56;;;16.09;50.88
23016;BME280;11674;52.428;13.584;2022-08-07T04:53:17;102340.44;;;16.07;50.95
23016;BME280;11674;52.428;13.584;2022-08-07T04:55:58;102334.59;;;16.04;50.99
23016;BME280;11674;52.428;13.584;2022-08-07T04:58:40;102346.38;;;16.01;51.07
23016;BME280;11674;52.428;13.584;2022-08-07T05:01:23;102349.75;;;15.98;51.24
23016;BME280;11674;52.428;13.584;2022-08-07T05:04:30;102339.69;;;15.97;51.44
23016;BME280;11674;52.428;13.584;2022-08-07T05:07:31;102340.78;;;16.01;51.22
23016;BME280;11674;52.428;13.584;2022-08-07T05:10:46;102334.03;;;16.07;51.41
23016;BME280;11674;52.428;13.584;2022-08-07T05:13:27;102340.72;;;16.16;51.50
23016;BME280;11674;52.428;13.584;2022-08-07T05:16:05;102345.69;;;16.24;51.48
23016;BME280;11674;52.428;13.584;2022-08-07T05:18:59;102346.75;;;16.33;51.82
23016;BME280;11674;52.428;13.584;2022-08-07T05:21:34;102336.63;;;16.42;51.50
23016;BME280;11674;52.428;13.584;2022-08-07T05:24:10;102350.56;;;16.52;51.46
23016;BME280;11674;52.428;13.584;2022-08-07T05:26:43;102350.25;;;16.58;51.88
23016;BME280;11674;52.428;13.584;2022-08-07T05:29:17;102340.94;;;16.63;51.64
23016;BME280;11674;52.428;13.584;2022-08-07T05:31:58;102341.47;;;16.70;51.89
23016;BME280;11674;52.428;13.584;2022-08-07T05:34:32;102343.63;;;16.78;51.88
23016;BME280;11674;52.428;13.584;2022-08-07T05:37:07;102337.94;;;16.88;52.06
23016;BME280;11674;52.428;13.584;2022-08-07T05:39:50;102349.59;;;17.00;52.05
23016;BME280;11674;52.428;13.584;2022-08-07T05:42:22;102345.91;;;17.09;52.06
23016;BME280;11674;52.428;13.584;2022-08-07T05:44:54;102348.56;;;17.19;51.94
23016;BME280;11674;52.428;13.584;2022-08-07T05:47:26;102354.09;;;17.29;51.85
23016;BME280;11674;52.428;13.584;2022-08-07T05:49:59;102350.41;;;17.39;52.36
23016;BME280;11674;52.428;13.584;2022-08-07T05:52:32;102350.81;;;17.51;51.97
23016;BME280;11674;52.428;13.584;2022-08-07T05:55:06;102351.22;;;17.63;51.81
23016;BME280;11674;52.428;13.584;2022-08-07T05:57:41;102353.34;;;17.76;51.88
23016;BME280;11674;52.428;13.584;2022-08-07T06:00:15;102352.59;;;17.89;51.45
23016;BME280;11674;52.428;13.584;2022-08-07T06:02:57;102365.06;;;18.01;51.29
23016;BME280;11674;52.428;13.584;2022-08-07T06:05:30;102362.66;;;18.13;51.28
23016;BME280;11674;52.428;13.584;2022-08-07T06:08:07;102363.59;;;18.27;51.14
23016;BME280;11674;52.428;13.584;2022-08-07T06:10:41;102354.72;;;18.39;50.84
23016;BME280;11674;52.428;13.584;2022-08-07T06:13:13;102361.34;;;18.48;50.72
23016;BME280;11674;52.428;13.584;2022-08-07T06:15:47;102360.03;;;18.59;50.48
23016;BME280;11674;52.428;13.584;2022-08-07T06:18:23;102360.94;;;18.73;50.18
23016;BME280;11674;52.428;13.584;2022-08-07T06:20:55;102357.97;;;18.83;49.69
23016;BME280;11674;52.428;13.584;2022-08-07T06:23:29;102367.91;;;18.94;49.19
23016;BME280;11674;52.428;13.584;2022-08-07T06:26:02;102360.41;;;19.03;48.99
23016;BME280;11674;52.428;13.584;2022-08-07T06:28:47;102359.72;;;19.11;48.95
23016;BME280;11674;52.428;13.584;2022-08-07T06:31:20;102363.22;;;19.21;49.17
23016;BME280;11674;52.428;13.584;2022-08-07T06:33:53;102371.19;;;19.33;48.94
23016;BME280;11674;52.428;13.584;2022-08-07T06:36:24;102363.38;;;19.43;49.13
23016;BME280;11674;52.428;13.584;2022-08-07T06:38:56;102362.03;;;19.54;48.66
23016;BME280;11674;52.428;13.584;2022-08-07T06:41:51;102358.69;;;19.66;48.11
23016;BME280;11674;52.428;13.584;2022-08-07T06:44:39;102356.19;;;19.78;47.78
23016;BME280;11674;52.428;13.584;2022-08-07T06:47:13;102359.66;;;19.88;47.25
23016;BME280;11674;52.428;13.584;2022-08-07T06:49:45;102363.06;;;19.99;46.90
23016;BME280;11674;52.428;13.584;2022-08-07T06:52:21;102354.75;;;20.07;46.71
23016;BME280;11674;52.428;13.584;2022-08-07T06:54:54;102356.84;;;20.15;46.39
23016;BME280;11674;52.428;13.584;2022-08-07T06:57:28;102358.06;;;20.23;46.09
23016;BME280;11674;52.428;13.584;2022-08-07T07:00:04;102357.66;;;20.29;45.78
23016;BME280;11674;52.428;13.584;2022-08-07T07:02:37;102356.88;;;20.37;45.38
23016;BME280;11674;52.428;13.584;2022-08-07T07:05:10;102354.69;;;20.48;45.31
23016;BME280;11674;52.428;13.584;2022-08-07T07:07:44;102353.28;;;20.59;45.05
23016;BME280;11674;52.428;13.584;2022-08-07T07:10:26;102359.81;;;20.68;44.41
23016;BME280;11674;52.428;13.584;2022-08-07T07:13:05;102360.22;;;20.75;44.46
23016;BME280;11674;52.428;13.584;2022-08-07T07:15:42;102352.97;;;20.82;44.33
23016;BME280;11674;52.428;13.584;2022-08-07T07:18:26;102359.53;;;20.91;43.90
23016;BME280;11674;52.428;13.584;2022-08-07T07:21:03;102357.94;;;20.99;43.77
23016;BME280;11674;52.428;13.584;2022-08-07T07:23:37;102353.00;;;21.04;43.60
23016;BME280;11674;52.428;13.584;2022-08-07T07:26:13;102349.72;;;21.11;43.45
23016;BME280;11674;52.428;13.584;2022-08-07T07:29:02;102348.94;;;21.19;42.83
23016;BME280;11674;52.428;13.584;2022-08-07T07:31:37;102348.28;;;21.22;42.82
23016;BME280;11674;52.428;13.584;2022-08-07T07:34:16;102347.34;;;21.26;42.58
23016;BME280;11674;52.428;13.584;2022-08-07T07:36:49;102345.38;;;21.35;42.22
23016;BME280;11674;52.428;13.584;2022-08-07T07:39:22;102342.09;;;21.42;41.89
23016;BME280;11674;52.428;13.584;2022-08-07T07:41:56;102337.34;;;21.51;42.09
23016;BME280;11674;52.428;13.584;2022-08-07T07:44:29;102348.66;;;21.59;41.64
23016;BME280;11674;52.428;13.584;2022-08-07T07:47:03;102343.38;;;21.66;41.55
23016;BME280;11674;52.428;13.584;2022-08-07T07:49:37;102332.81;;;21.72;41.39
23016;BME280;11674;52.428;13.584;2022-08-07T07:52:10;102339.13;;;21.77;40.97
23016;BME280;11674;52.428;13.584;2022-08-07T07:54:44;102326.31;;;21.80;40.93
23016;BME280;11674;52.428;13.584;2022-08-07T07:57:19;102329.00;;;21.85;40.70
23016;BME280;11674;52.428;13.584;2022-08-07T07:59:53;102319.38;;;21.94;40.80
23016;BME280;11674;52.428;13.584;2022-08-07T08:02:27;102328.22;;;22.01;40.68
23016;BME280;11674;52.428;13.584;2022-08-07T08:05:04;102315.09;;;22.05;40.27
23016;BME280;11674;52.428;13.584;2022-08-07T08:07:37;102317.09;;;22.05;40.26
23016;BME280;11674;52.428;13.584;2022-08-07T08:10:12;102317.09;;;22.05;40.04
23016;BME280;11674;52.428;13.584;2022-08-07T08:12:45;102311.94;;;22.07;40.14
23016;BME280;11674;52.428;13.584;2022-08-07T08:15:18;102313.13;;;22.14;40.12
23016;BME280;11674;52.428;13.584;2022-08-07T08:17:50;102307.63;;;22.18;39.66
23016;BME280;11674;52.428;13.584;2022-08-07T08:20:23;102313.81;;;22.20;39.54
23016;BME280;11674;52.428;13.584;2022-08-07T08:22:55;102311.47;;;22.22;39.42
23016;BME280;11674;52.428;13.584;2022-08-07T08:25:23;102307.81;;;22.30;39.23
23016;BME280;11674;52.428;13.584;2022-08-07T08:27:57;102304.16;;;22.38;39.04
23016;BME280;11674;52.428;13.584;2022-08-07T08:30:33;102311.69;;;22.51;38.68
23016;BME280;11674;52.428;13.584;2022-08-07T08:33:04;102312.50;;;22.60;38.60
23016;BME280;11674;52.428;13.584;2022-08-07T08:35:32;102312.50;;;22.60;38.51
23016;BME280;11674;52.428;13.584;2022-08-07T08:38:05;102308.69;;;22.56;38.30
23016;BME280;11674;52.428;13.584;2022-08-07T08:40:40;102309.03;;;22.54;37.87
23016;BME280;11674;52.428;13.584;2022-08-07T08:49:52;102305.66;;;22.61;37.89
23016;BME280;11674;52.428;13.584;2022-08-07T08:55:31;102298.53;;;22.72;37.43
23016;BME280;11674;52.428;13.584;2022-08-07T08:58:09;102286.53;;;22.75;37.36
23016;BME280;11674;52.428;13.584;2022-08-07T09:00:50;102292.50;;;22.73;36.94
23016;BME280;11674;52.428;13.584;2022-08-07T09:03:33;102287.53;;;22.70;36.95
23016;BME280;11674;52.428;13.584;2022-08-07T09:09:07;102288.88;;;22.73;36.37
23016;BME280;11674;52.428;13.584;2022-08-07T09:14:53;102284.53;;;22.84;36.64
23016;BME280;11674;52.428;13.584;2022-08-07T09:20:25;102283.97;;;23.07;35.64
23016;BME280;11674;52.428;13.584;2022-08-07T09:28:41;102277.78;;;23.31;35.70
23016;BME280;11674;52.428;13.584;2022-08-07T09:31:07;102277.72;;;23.39;35.54
23016;BME280;11674;52.428;13.584;2022-08-07T09:34:07;102268.34;;;23.47;34.94
23016;BME280;11674;52.428;13.584;2022-08-07T09:37:01;102270.38;;;23.47;35.16
23016;BME280;11674;52.428;13.584;2022-08-07T09:45:13;102257.94;;;23.97;34.37
23016;BME280;11674;52.428;13.584;2022-08-07T09:47:50;102258.69;;;24.06;34.46
23016;BME280;11674;52.428;13.584;2022-08-07T09:53:11;102241.59;;;23.94;33.88
23016;BME280;11674;52.428;13.584;2022-08-07T09:58:59;102251.78;;;23.87;33.71
23016;BME280;11674;52.428;13.584;2022-08-07T10:01:57;102249.97;;;23.91;33.64
23016;BME280;11674;52.428;13.584;2022-08-07T10:11:08;102229.84;;;24.04;33.75
23016;BME280;11674;52.428;13.584;2022-08-07T10:14:08;102226.94;;;24.13;33.42
23016;BME280;11674;52.428;13.584;2022-08-07T10:19:39;102224.97;;;24.46;33.13
23016;BME280;11674;52.428;13.584;2022-08-07T10:28:15;102204.50;;;24.73;32.66
23016;BME280;11674;52.428;13.584;2022-08-07T10:37:28;102201.28;;;25.19;32.26
23016;BME280;11674;52.428;13.584;2022-08-07T10:40:15;102191.34;;;25.49;31.79
23016;BME280;11674;52.428;13.584;2022-08-07T10:42:59;102186.97;;;25.63;31.74
23016;BME280;11674;52.428;13.584;2022-08-07T10:45:37;102190.16;;;25.74;31.46
23016;BME280;11674;52.428;13.584;2022-08-07T10:54:12;102180.19;;;25.80;31.35
23016;BME280;11674;52.428;13.584;2022-08-07T10:57:09;102179.25;;;25.88;31.13
23016;BME280;11674;52.428;13.584;2022-08-07T11:13:50;102159.59;;;26.22;29.40
23016;BME280;11674;52.428;13.584;2022-08-07T11:16:33;102151.25;;;25.90;29.49
23016;BME280;11674;52.428;13.584;2022-08-07T11:19:35;102159.72;;;25.74;29.85
23016;BME280;11674;52.428;13.584;2022-08-07T11:22:24;102157.78;;;25.78;29.85
23016;BME280;11674;52.428;13.584;2022-08-07T11:25:10;102156.50;;;25.76;29.75
23016;BME280;11674;52.428;13.584;2022-08-07T11:30:16;102139.25;;;25.45;29.34
23016;BME280;11674;52.428;13.584;2022-08-07T11:33:02;102137.69;;;25.23;29.59
23016;BME280;11674;52.428;13.584;2022-08-07T11:36:02;102135.69;;;25.12;29.63
23016;BME280;11674;52.428;13.584;2022-08-07T11:39:05;102129.50;;;25.22;29.80
23016;BME280;11674;52.428;13.584;2022-08-07T11:44:58;102126.00;;;25.37;29.99
23016;BME280;11674;52.428;13.584;2022-08-07T11:51:16;102117.47;;;26.00;29.35
23016;BME280;11674;52.428;13.584;2022-08-07T11:54:02;102121.31;;;26.35;29.01
23016;BME280;11674;52.428;13.584;2022-08-07T11:57:26;102116.09;;;26.80;28.63
23016;BME280;11674;52.428;13.584;2022-08-07T12:08:22;102093.50;;;27.18;27.77
23016;BME280;11674;52.428;13.584;2022-08-07T12:11:12;102093.00;;;27.32;27.49
23016;BME280;11674;52.428;13.584;2022-08-07T12:16:26;102088.59;;;27.88;27.29
23016;BME280;11674;52.428;13.584;2022-08-07T12:19:25;102090.59;;;28.25;26.68
23016;BME280;11674;52.428;13.584;2022-08-07T12:22:08;102089.00;;;28.47;26.63
23016;BME280;11674;52.428;13.584;2022-08-07T12:27:54;102075.25;;;30.08;25.85
23016;BME280;11674;52.428;13.584;2022-08-07T12:30:31;102070.81;;;30.87;25.36
23016;BME280;11674;52.428;13.584;2022-08-07T12:33:08;102076.22;;;30.96;25.42
23016;BME280;11674;52.428;13.584;2022-08-07T12:35:41;102057.69;;;31.37;25.46
23016;BME280;11674;52.428;13.584;2022-08-07T12:38:14;102058.44;;;31.95;25.18
23016;BME280;11674;52.428;13.584;2022-08-07T12:40:48;102056.53;;;32.27;24.70
23016;BME280;11674;52.428;13.584;2022-08-07T12:43:23;102053.25;;;32.46;24.94
23016;BME280;11674;52.428;13.584;2022-08-07T12:52:00;102047.53;;;32.74;23.93
23016;BME280;11674;52.428;13.584;2022-08-07T12:54:56;102047.13;;;32.61;23.84
23016;BME280;11674;52.428;13.584;2022-08-07T12:57:31;102042.91;;;32.13;23.74
23016;BME280;11674;52.428;13.584;2022-08-07T13:00:06;102036.00;;;31.46;23.62
23016;BME280;11674;52.428;13.584;2022-08-07T13:08:25;102042.38;;;30.28;23.88
23016;BME280;11674;52.428;13.584;2022-08-07T13:14:00;102035.53;;;29.18;24.04
23016;BME280;11674;52.428;13.584;2022-08-07T13:16:54;102037.41;;;28.59;24.34
23016;BME280;11674;52.428;13.584;2022-08-07T13:19:53;102031.75;;;28.21;24.51
23016;BME280;11674;52.428;13.584;2022-08-07T13:22:35;102037.59;;;27.86;24.89
23016;BME280;11674;52.428;13.584;2022-08-07T13:25:10;102027.66;;;27.61;24.70
23016;BME280;11674;52.428;13.584;2022-08-07T13:27:55;102030.41;;;27.39;25.10
23016;BME280;11674;52.428;13.584;2022-08-07T13:30:30;102021.13;;;27.42;25.60
23016;BME280;11674;52.428;13.584;2022-08-07T13:35:56;102011.75;;;27.79;24.95
23016;BME280;11674;52.428;13.584;2022-08-07T13:44:06;102013.44;;;27.46;24.59
23016;BME280;11674;52.428;13.584;2022-08-07T13:46:41;102001.88;;;27.20;24.99
23016;BME280;11674;52.428;13.584;2022-08-07T13:49:17;102011.56;;;27.00;25.14
23016;BME280;11674;52.428;13.584;2022-08-07T13:51:51;102004.97;;;26.80;25.27
23016;BME280;11674;52.428;13.584;2022-08-07T13:54:28;102006.75;;;26.69;25.50
23016;BME280;11674;52.428;13.584;2022-08-07T13:57:02;101998.56;;;26.68;25.39
23016;BME280;11674;52.428;13.584;2022-08-07T13:59:35;102004.50;;;26.78;25.64
23016;BME280;11674;52.428;13.584;2022-08-07T14:02:10;102000.59;;;27.02;25.45
23016;BME280;11674;52.428;13.584;2022-08-07T14:07:17;101993.34;;;27.77;25.29
23016;BME280;11674;52.428;13.584;2022-08-07T14:09:55;101986.84;;;28.18;24.98
23016;BME280;11674;52.428;13.584;2022-08-07T14:12:36;101988.59;;;28.45;24.91
23016;BME280;11674;52.428;13.584;2022-08-07T14:15:17;101984.97;;;28.74;24.29
23016;BME280;11674;52.428;13.584;2022-08-07T14:17:51;101978.41;;;28.96;24.20
23016;BME280;11674;52.428;13.584;2022-08-07T14:20:28;101976.03;;;29.27;24.29
23016;BME280;11674;52.428;13.584;2022-08-07T14:23:06;101974.03;;;29.57;23.95
23016;BME280;11674;52.428;13.584;2022-08-07T14:25:39;101973.97;;;29.87;23.72
23016;BME280;11674;52.428;13.584;2022-08-07T14:28:13;101974.84;;;29.94;23.34
23016;BME280;11674;52.428;13.584;2022-08-07T14:30:47;101969.50;;;29.89;23.37
23016;BME280;11674;52.428;13.584;2022-08-07T14:33:21;101960.44;;;29.87;23.41
23016;BME280;11674;52.428;13.584;2022-08-07T14:35:55;101960.00;;;29.82;23.41
23016;BME280;11674;52.428;13.584;2022-08-07T14:38:29;101965.97;;;29.70;23.30
23016;BME280;11674;52.428;13.584;2022-08-07T14:41:09;101961.59;;;29.79;23.01
23016;BME280;11674;52.428;13.584;2022-08-07T14:43:43;101955.00;;;29.75;22.84
23016;BME280;11674;52.428;13.584;2022-08-07T14:46:17;101959.06;;;29.71;22.97
23016;BME280;11674;52.428;13.584;2022-08-07T14:48:50;101956.53;;;29.66;23.05
23016;BME280;11674;52.428;13.584;2022-08-07T14:51:25;101953.72;;;29.69;23.17
23016;BME280;11674;52.428;13.584;2022-08-07T14:54:00;101948.75;;;29.66;22.86
23016;BME280;11674;52.428;13.584;2022-08-07T14:56:38;101943.59;;;29.79;22.91
23016;BME280;11674;52.428;13.584;2022-08-07T14:59:11;101951.16;;;29.97;22.90
23016;BME280;11674;52.428;13.584;2022-08-07T15:01:44;101939.09;;;30.14;22.84
23016;BME280;11674;52.428;13.584;2022-08-07T15:04:16;101937.16;;;30.29;22.96
23016;BME280;11674;52.428;13.584;2022-08-07T15:06:48;101938.53;;;30.42;22.66
23016;BME280;11674;52.428;13.584;2022-08-07T15:09:22;101934.91;;;30.48;22.29
23016;BME280;11674;52.428;13.584;2022-08-07T15:11:57;101937.63;;;30.34;22.70
23016;BME280;11674;52.428;13.584;2022-08-07T15:14:32;101932.66;;;30.28;22.49
23016;BME280;11674;52.428;13.584;2022-08-07T15:17:12;101923.72;;;30.36;22.63
23016;BME280;11674;52.428;13.584;2022-08-07T15:19:59;101927.94;;;30.49;22.54
23016;BME280;11674;52.428;13.584;2022-08-07T15:22:44;101927.63;;;30.65;22.40
23016;BME280;11674;52.428;13.584;2022-08-07T15:25:21;101920.34;;;30.74;22.32
23016;BME280;11674;52.428;13.584;2022-08-07T15:27:59;101915.38;;;30.64;22.24
23016;BME280;11674;52.428;13.584;2022-08-07T15:30:32;101915.25;;;30.50;22.62
23016;BME280;11674;52.428;13.584;2022-08-07T15:33:05;101916.13;;;30.58;22.59
23016;BME280;11674;52.428;13.584;2022-08-07T15:35:37;101910.47;;;30.68;22.46
23016;BME280;11674;52.428;13.584;2022-08-07T15:38:10;101906.00;;;30.71;22.29